Time,TemperatureF,DewpointF,PressureIn,WindDirection,WindDirectionDegrees,WindSpeedMPH,WindSpeedGustMPH,Humidity,HourlyPrecipIn,Conditions,Clouds,dailyrainin,SoftwareType,DateUTC
2013-01-26 00:00:00,45.6,45.1,30.03,North,0,0.0,0.0,98,0.00,,,0.00,LWC V2.00 B2112,2013-01-26 08:00:00,
2013-01-26 00:10:00,45.6,45.1,30.03,North,0,0.0,0.0,98,0.00,,,0.00,LWC V2.00 B2112,2013-01-26 08:10:00,
2013-01-26 00:20:00,45.6,45.1,30.03,North,0,0.0,0.0,98,0.00,,,0.00,LWC V2.00 B2112,2013-01-26 08:20:00,
2013-01-26 00:30:00,46.3,45.5,30.03,North,0,0.0,0.0,97,0.00,,,0.00,LWC V2.00 B2112,2013-01-26 08:30:00,
2013-01-26 00:40:00,46.3,45.5,30.03,North,0,0.0,0.0,97,0.00,,,0.00,LWC V2.00 B2112,2013-01-26 08:40:00,
2013-01-26 00:50:00,46.3,45.5,30.03,North,0,0.0,0.0,97,0.00,,,0.00,LWC V2.00 B2112,2013-01-26 08:50:00,
2013-01-26 01:00:00,47.1,46.6,30.02,North,0,0.0,0.0,98,0.00,,,0.00,LWC V2.00 B2112,2013-01-26 09:00:00,
2013-01-26 01:10:00,47.1,46.6,30.02,North,0,0.0,0.0,98,0.00,,,0.00,LWC V2.00 B2112,2013-01-26 09:10:00,
2013-01-26 01:20:00,47.1,46.6,30.02,North,0,0.0,0.0,98,0.00,,,0.00,LWC V2.00 B2112,2013-01-26 09:20:00,
2013-01-26 01:30:00,48.2,47.7,30.02,North,0,0.0,0.0,98,0.00,,,0.00,LWC V2.00 B2112,2013-01-26 09:30:00,
2013-01-26 01:40:00,48.2,47.7,30.02,North,0,0.0,0.0,98,0.00,,,0.00,LWC V2.00 B2112,2013-01-26 09:40:00,
2013-01-26 01:50:00,48.2,47.7,30.02,North,0,0.0,0.0,98,0.00,,,0.00,LWC V2.00 B2112,2013-01-26 09:50:00,
2013-01-26 02:00:00,48.3,47.8,30.01,NW,315,0.0,2.0,98,0.00,,,0.00,LWC V2.00 B2112,2013-01-26 10:00:00,
2013-01-26 02:10:00,48.3,47.8,30.01,NW,315,0.0,2.0,98,0.00,,,0.00,LWC V2.00 B2112,2013-01-26 10:10:00,
2013-01-26 02:20:00,48.3,47.8,30.01,NW,315,0.0,2.0,98,0.00,,,0.00,LWC V2.00 B2112,2013-01-26 10:20:00,
2013-01-26 02:30:00,50.7,50.2,30.01,ESE,112,0.0,3.0,98,0.00,,,0.00,LWC V2.00 B2112,2013-01-26 10:30:00,
2013-01-26 02:40:00,50.7,50.2,30.01,ESE,112,0.0,3.0,98,0.00,,,0.00,LWC V2.00 B2112,2013-01-26 10:40:00,
2013-01-26 02:50:00,50.7,50.2,30.01,ESE,112,0.0,3.0,98,0.00,,,0.00,LWC V2.00 B2112,2013-01-26 10:50:00,
2013-01-26 03:00:00,51.2,50.6,30.00,North,0,0.0,0.0,98,0.00,,,0.00,LWC V2.00 B2112,2013-01-26 11:00:00,
2013-01-26 03:10:00,51.2,50.6,30.00,North,0,0.0,0.0,98,0.00,,,0.00,LWC V2.00 B2112,2013-01-26 11:10:00,
2013-01-26 03:20:00,51.2,50.6,30.00,North,0,0.0,0.0,98,0.00,,,0.00,LWC V2.00 B2112,2013-01-26 11:20:00,
2013-01-26 03:30:00,51.2,50.6,30.00,North,0,0.0,0.0,98,0.00,,,0.00,LWC V2.00 B2112,2013-01-26 11:30:00,
2013-01-26 03:40:00,51.7,51.2,30.00,East,90,0.0,4.0,98,0.00,,,0.00,LWC V2.00 B2112,2013-01-26 11:40:00,
2013-01-26 03:50:00,51.7,51.2,30.00,East,90,0.0,4.0,98,0.00,,,0.00,LWC V2.00 B2112,2013-01-26 11:50:00,
2013-01-26 04:00:00,51.7,51.2,30.00,East,90,0.0,4.0,98,0.00,,,0.00,LWC V2.00 B2112,2013-01-26 12:00:00,
2013-01-26 04:10:00,51.6,51.0,29.99,North,0,0.0,0.0,98,0.00,,,0.00,LWC V2.00 B2112,2013-01-26 12:10:00,
2013-01-26 04:20:00,51.6,51.0,29.99,North,0,0.0,0.0,98,0.00,,,0.00,LWC V2.00 B2112,2013-01-26 12:20:00,
2013-01-26 04:30:00,51.6,51.0,29.99,North,0,0.0,0.0,98,0.00,,,0.00,LWC V2.00 B2112,2013-01-26 12:30:00,
2013-01-26 04:40:00,51.5,51.0,29.99,East,90,0.0,2.0,98,0.00,,,0.00,LWC V2.00 B2112,2013-01-26 12:40:00,
2013-01-26 04:50:00,51.5,51.0,29.99,East,90,0.0,2.0,98,0.00,,,0.00,LWC V2.00 B2112,2013-01-26 12:50:00,
2013-01-26 05:00:00,51.5,51.0,29.99,East,90,0.0,2.0,98,0.00,,,0.00,LWC V2.00 B2112,2013-01-26 13:00:00,
2013-01-26 05:10:00,51.5,51.0,29.99,NNW,338,0.0,5.0,98,0.00,,,0.00,LWC V2.00 B2112,2013-01-26 13:10:00,
2013-01-26 05:20:00,51.5,51.0,29.99,NNW,338,0.0,5.0,98,0.00,,,0.00,LWC V2.00 B2112,2013-01-26 13:20:00,
2013-01-26 05:30:00,51.5,51.0,29.99,NNW,338,0.0,5.0,98,0.00,,,0.00,LWC V2.00 B2112,2013-01-26 13:30:00,
2013-01-26 05:40:00,51.5,51.0,29.98,East,90,0.0,5.0,98,0.00,,,0.00,LWC V2.00 B2112,2013-01-26 13:40:00,
2013-01-26 05:50:00,51.5,51.0,29.98,East,90,0.0,5.0,98,0.00,,,0.00,LWC V2.00 B2112,2013-01-26 13:50:00,
2013-01-26 06:00:00,51.5,51.0,29.98,East,90,0.0,5.0,98,0.00,,,0.00,LWC V2.00 B2112,2013-01-26 14:00:00,
2013-01-26 06:10:00,51.3,50.8,29.99,NNW,338,1.0,5.0,98,0.00,,,0.00,LWC V2.00 B2112,2013-01-26 14:10:00,
2013-01-26 06:20:00,51.3,50.8,29.99,NNW,338,1.0,5.0,98,0.00,,,0.00,LWC V2.00 B2112,2013-01-26 14:20:00,
2013-01-26 06:30:00,51.3,50.8,29.99,NNW,338,1.0,5.0,98,0.00,,,0.00,LWC V2.00 B2112,2013-01-26 14:30:00,
2013-01-26 06:40:00,50.4,49.9,29.99,East,90,1.0,6.0,98,0.00,,,0.00,LWC V2.00 B2112,2013-01-26 14:40:00,
2013-01-26 06:50:00,50.4,49.9,29.99,East,90,1.0,6.0,98,0.00,,,0.00,LWC V2.00 B2112,2013-01-26 14:50:00,
2013-01-26 07:00:00,50.4,49.9,29.99,East,90,1.0,6.0,98,0.00,,,0.00,LWC V2.00 B2112,2013-01-26 15:00:00,
2013-01-26 07:17:00,48.1,47.3,30.00,SSW,211,0.0,1.0,97,0.00,,,0.00,LWC V2.00 B2112,2013-01-26 15:17:00,
2013-01-26 07:22:00,47.8,47.0,30.00,West,260,1.0,4.0,97,0.00,,,0.00,LWC V2.00 B2112,2013-01-26 15:22:00,
2013-01-26 07:27:00,47.6,46.8,30.00,SSE,155,1.0,2.0,97,0.00,,,0.00,LWC V2.00 B2112,2013-01-26 15:27:00,
2013-01-26 07:32:00,47.5,46.7,30.00,ESE,106,0.0,2.0,97,0.00,,,0.00,LWC V2.00 B2112,2013-01-26 15:32:00,
2013-01-26 07:37:00,47.2,46.4,29.99,ESE,106,0.0,0.0,97,0.00,,,0.00,LWC V2.00 B2112,2013-01-26 15:37:00,
2013-01-26 07:42:00,47.0,45.9,29.99,ESE,106,0.0,0.0,96,0.00,,,0.00,LWC V2.00 B2112,2013-01-26 15:42:00,
2013-01-26 07:47:00,46.8,45.7,29.99,ENE,78,0.0,0.0,96,0.00,,,0.00,LWC V2.00 B2112,2013-01-26 15:47:00,
2013-01-26 07:52:00,46.7,45.9,29.99,East,80,0.0,0.0,97,0.00,,,0.00,LWC V2.00 B2112,2013-01-26 15:52:00,
2013-01-26 07:57:00,46.6,45.8,29.99,SSW,192,0.0,1.0,97,0.00,,,0.00,LWC V2.00 B2112,2013-01-26 15:57:00,
2013-01-26 08:02:00,46.7,45.9,29.99,SE,141,0.0,1.0,97,0.00,,,0.01,LWC V2.00 B2112,2013-01-26 16:02:00,
2013-01-26 08:07:00,46.8,46.0,29.99,East,86,2.0,3.0,97,0.00,,,0.01,LWC V2.00 B2112,2013-01-26 16:07:00,
2013-01-26 08:12:00,47.0,46.2,30.00,South,170,0.0,1.0,97,0.00,,,0.01,LWC V2.00 B2112,2013-01-26 16:12:00,
2013-01-26 08:17:00,47.2,46.1,29.99,ESE,108,0.0,0.0,96,0.00,,,0.01,LWC V2.00 B2112,2013-01-26 16:17:00,
2013-01-26 08:22:00,47.4,46.3,29.99,ESE,105,0.0,1.0,96,0.00,,,0.01,LWC V2.00 B2112,2013-01-26 16:22:00,
2013-01-26 08:27:00,47.6,46.5,29.99,WNW,290,0.0,2.0,96,0.00,,,0.01,LWC V2.00 B2112,2013-01-26 16:27:00,
2013-01-26 08:32:00,47.9,46.5,30.00,SSE,160,0.0,2.0,95,0.00,,,0.01,LWC V2.00 B2112,2013-01-26 16:32:00,
2013-01-26 08:37:00,48.1,46.7,29.99,ESE,112,1.0,1.0,95,0.00,,,0.01,LWC V2.00 B2112,2013-01-26 16:37:00,
2013-01-26 08:42:00,48.2,46.6,29.99,SSE,148,1.0,3.0,94,0.00,,,0.01,LWC V2.00 B2112,2013-01-26 16:42:00,
2013-01-26 08:47:00,48.2,46.3,29.99,ESE,103,0.0,2.0,93,0.00,,,0.01,LWC V2.00 B2112,2013-01-26 16:47:00,
2013-01-26 08:52:00,48.4,46.5,29.99,SE,124,1.0,4.0,93,0.00,,,0.01,LWC V2.00 B2112,2013-01-26 16:52:00,
2013-01-26 08:57:00,48.6,46.4,29.99,SSE,148,1.0,9.0,92,0.00,,,0.01,LWC V2.00 B2112,2013-01-26 16:57:00,
2013-01-26 09:02:00,48.9,46.4,30.00,East,94,0.0,4.0,91,0.00,,,0.01,LWC V2.00 B2112,2013-01-26 17:02:00,
2013-01-26 09:07:00,49.0,46.2,30.00,NNW,330,3.0,3.0,90,0.00,,,0.01,LWC V2.00 B2112,2013-01-26 17:07:00,
2013-01-26 09:12:00,49.2,45.8,30.00,East,97,1.0,6.0,88,0.00,,,0.01,LWC V2.00 B2112,2013-01-26 17:12:00,
2013-01-26 09:17:00,49.3,45.9,30.00,ESE,113,5.0,5.0,88,0.00,,,0.01,LWC V2.00 B2112,2013-01-26 17:17:00,
2013-01-26 09:22:00,49.4,45.7,30.00,ESE,122,2.0,4.0,87,0.00,,,0.01,LWC V2.00 B2112,2013-01-26 17:22:00,
2013-01-26 09:27:00,49.5,45.5,30.00,ESE,105,6.0,6.0,86,0.00,,,0.01,LWC V2.00 B2112,2013-01-26 17:27:00,
2013-01-26 09:32:00,49.6,45.3,30.00,East,88,1.0,2.0,85,0.00,,,0.01,LWC V2.00 B2112,2013-01-26 17:32:00,
2013-01-26 09:37:00,49.7,45.1,30.00,East,99,1.0,6.0,84,0.00,,,0.01,LWC V2.00 B2112,2013-01-26 17:37:00,
2013-01-26 09:42:00,49.9,44.9,30.00,SSW,211,1.0,2.0,83,0.00,,,0.01,LWC V2.00 B2112,2013-01-26 17:42:00,
2013-01-26 09:47:00,50.1,45.1,30.01,SE,127,1.0,3.0,83,0.00,,,0.01,LWC V2.00 B2112,2013-01-26 17:47:00,
2013-01-26 09:52:00,50.1,44.8,30.00,ESE,122,1.0,4.0,82,0.00,,,0.01,LWC V2.00 B2112,2013-01-26 17:52:00,
2013-01-26 09:57:00,50.2,44.9,30.01,NE,54,0.0,4.0,82,0.00,,,0.01,LWC V2.00 B2112,2013-01-26 17:57:00,
2013-01-26 10:02:00,50.1,44.5,30.01,South,183,2.0,5.0,81,0.00,,,0.01,LWC V2.00 B2112,2013-01-26 18:02:00,
2013-01-26 10:07:00,50.4,44.8,30.01,East,90,2.0,6.0,81,0.00,,,0.01,LWC V2.00 B2112,2013-01-26 18:07:00,
2013-01-26 10:12:00,50.5,44.9,30.01,ESE,115,2.0,2.0,81,0.00,,,0.01,LWC V2.00 B2112,2013-01-26 18:12:00,
2013-01-26 10:17:00,50.5,44.6,30.01,NNW,335,1.0,4.0,80,0.00,,,0.01,LWC V2.00 B2112,2013-01-26 18:17:00,
2013-01-26 10:22:00,50.7,44.8,30.01,WNW,297,2.0,2.0,80,0.00,,,0.01,LWC V2.00 B2112,2013-01-26 18:22:00,
2013-01-26 10:27:00,50.9,45.0,30.01,ESE,103,0.0,2.0,80,0.00,,,0.01,LWC V2.00 B2112,2013-01-26 18:27:00,
2013-01-26 10:32:00,50.8,44.9,30.01,NE,43,0.0,5.0,80,0.00,,,0.01,LWC V2.00 B2112,2013-01-26 18:32:00,
2013-01-26 10:37:00,51.0,45.0,30.01,ENE,67,1.0,1.0,80,0.00,,,0.01,LWC V2.00 B2112,2013-01-26 18:37:00,
2013-01-26 10:42:00,51.2,44.9,30.01,WNW,298,1.0,4.0,79,0.00,,,0.01,LWC V2.00 B2112,2013-01-26 18:42:00,
2013-01-26 10:47:00,51.4,44.8,30.01,East,84,2.0,9.0,78,0.00,,,0.01,LWC V2.00 B2112,2013-01-26 18:47:00,
2013-01-26 10:52:00,51.6,45.0,30.01,ENE,68,2.0,7.0,78,0.00,,,0.01,LWC V2.00 B2112,2013-01-26 18:52:00,
2013-01-26 10:57:00,51.7,45.7,30.01,North,356,0.0,8.0,80,0.00,,,0.01,LWC V2.00 B2112,2013-01-26 18:57:00,
2013-01-26 11:02:00,51.9,46.3,30.01,NNW,333,5.0,5.0,81,0.00,,,0.01,LWC V2.00 B2112,2013-01-26 19:02:00,
2013-01-26 11:07:00,52.0,46.4,30.01,NW,307,2.0,8.0,81,0.00,,,0.01,LWC V2.00 B2112,2013-01-26 19:07:00,
2013-01-26 11:12:00,52.2,46.9,30.01,North,352,0.0,5.0,82,0.00,,,0.01,LWC V2.00 B2112,2013-01-26 19:12:00,
2013-01-26 11:17:00,52.3,47.3,30.00,WSW,250,4.0,5.0,83,0.00,,,0.01,LWC V2.00 B2112,2013-01-26 19:17:00,
2013-01-26 11:22:00,52.4,47.1,30.00,SSE,163,1.0,4.0,82,0.00,,,0.01,LWC V2.00 B2112,2013-01-26 19:22:00,
2013-01-26 11:27:00,52.6,47.3,30.00,SSW,192,2.0,3.0,82,0.00,,,0.01,LWC V2.00 B2112,2013-01-26 19:27:00,
2013-01-26 11:32:00,52.7,47.0,30.00,ENE,73,3.0,12.0,81,0.00,,,0.01,LWC V2.00 B2112,2013-01-26 19:32:00,
2013-01-26 11:37:00,52.3,47.0,30.00,SSE,160,3.0,6.0,82,0.00,,,0.01,LWC V2.00 B2112,2013-01-26 19:37:00,
2013-01-26 11:42:00,52.4,47.1,30.00,East,98,4.0,6.0,82,0.00,,,0.01,LWC V2.00 B2112,2013-01-26 19:42:00,
2013-01-26 11:47:00,52.3,47.0,29.99,WNW,298,1.0,4.0,82,0.00,,,0.01,LWC V2.00 B2112,2013-01-26 19:47:00,
2013-01-26 11:52:00,52.3,46.6,30.00,NNE,26,3.0,6.0,81,0.00,,,0.01,LWC V2.00 B2112,2013-01-26 19:52:00,
2013-01-26 11:57:00,52.6,47.3,29.99,ENE,70,3.0,3.0,82,0.00,,,0.01,LWC V2.00 B2112,2013-01-26 19:57:00,
2013-01-26 12:02:00,52.6,46.9,29.99,ESE,105,5.0,5.0,81,0.00,,,0.01,LWC V2.00 B2112,2013-01-26 20:02:00,
2013-01-26 12:07:00,52.6,47.3,29.99,SE,136,3.0,6.0,82,0.00,,,0.01,LWC V2.00 B2112,2013-01-26 20:07:00,
2013-01-26 12:12:00,52.6,46.9,29.99,East,96,5.0,8.0,81,0.00,,,0.01,LWC V2.00 B2112,2013-01-26 20:12:00,
2013-01-26 12:17:00,52.7,47.4,29.99,SE,134,3.0,4.0,82,0.00,,,0.01,LWC V2.00 B2112,2013-01-26 20:17:00,
2013-01-26 12:22:00,52.7,47.4,29.98,ENE,78,1.0,4.0,82,0.00,,,0.01,LWC V2.00 B2112,2013-01-26 20:22:00,
2013-01-26 12:27:00,52.7,47.4,29.98,East,94,5.0,5.0,82,0.00,,,0.01,LWC V2.00 B2112,2013-01-26 20:27:00,
2013-01-26 12:32:00,52.9,47.2,29.98,SE,129,3.0,4.0,81,0.00,,,0.01,LWC V2.00 B2112,2013-01-26 20:32:00,
2013-01-26 12:37:00,52.9,47.2,29.98,SW,233,2.0,5.0,81,0.00,,,0.01,LWC V2.00 B2112,2013-01-26 20:37:00,
2013-01-26 12:42:00,53.0,47.3,29.98,NE,44,2.0,7.0,81,0.00,,,0.01,LWC V2.00 B2112,2013-01-26 20:42:00,
2013-01-26 12:47:00,53.2,47.2,29.97,WNW,302,1.0,9.0,80,0.00,,,0.01,LWC V2.00 B2112,2013-01-26 20:47:00,
2013-01-26 12:52:00,53.1,47.1,29.98,NW,315,1.0,3.0,80,0.00,,,0.01,LWC V2.00 B2112,2013-01-26 20:52:00,
2013-01-26 12:57:00,53.2,47.2,29.98,NNE,32,4.0,6.0,80,0.00,,,0.01,LWC V2.00 B2112,2013-01-26 20:57:00,
2013-01-26 13:02:00,53.3,47.3,29.97,East,98,1.0,3.0,80,0.00,,,0.01,LWC V2.00 B2112,2013-01-26 21:02:00,
2013-01-26 13:07:00,53.0,47.0,29.97,WNW,297,1.0,8.0,80,0.00,,,0.01,LWC V2.00 B2112,2013-01-26 21:07:00,
2013-01-26 13:12:00,53.0,47.7,29.97,NNW,333,4.0,7.0,82,0.00,,,0.01,LWC V2.00 B2112,2013-01-26 21:12:00,
2013-01-26 13:17:00,53.1,47.4,29.97,East,94,1.0,6.0,81,0.00,,,0.01,LWC V2.00 B2112,2013-01-26 21:17:00,
2013-01-26 13:22:00,53.0,46.7,29.97,NNW,332,4.0,5.0,79,0.00,,,0.01,LWC V2.00 B2112,2013-01-26 21:22:00,
2013-01-26 13:27:00,53.4,47.1,29.97,North,350,3.0,3.0,79,0.00,,,0.01,LWC V2.00 B2112,2013-01-26 21:27:00,
2013-01-26 13:32:00,53.8,46.4,29.96,SE,141,2.0,6.0,76,0.00,,,0.01,LWC V2.00 B2112,2013-01-26 21:32:00,
2013-01-26 13:37:00,53.4,45.3,29.97,East,86,2.0,6.0,74,0.00,,,0.01,LWC V2.00 B2112,2013-01-26 21:37:00,
2013-01-26 13:42:00,53.1,45.7,29.97,ENE,64,2.0,6.0,76,0.00,,,0.01,LWC V2.00 B2112,2013-01-26 21:42:00,
2013-01-26 13:47:00,53.0,46.0,29.97,NW,315,2.0,5.0,77,0.00,,,0.01,LWC V2.00 B2112,2013-01-26 21:47:00,
2013-01-26 13:52:00,53.0,46.0,29.97,WNW,301,0.0,4.0,77,0.00,,,0.01,LWC V2.00 B2112,2013-01-26 21:52:00,
2013-01-26 13:57:00,53.2,46.2,29.97,South,190,3.0,14.0,77,0.00,,,0.01,LWC V2.00 B2112,2013-01-26 21:57:00,
2013-01-26 14:02:00,53.0,45.6,29.97,NE,49,6.0,9.0,76,0.00,,,0.01,LWC V2.00 B2112,2013-01-26 22:02:00,
2013-01-26 14:07:00,52.7,45.3,29.97,SW,229,5.0,8.0,76,0.00,,,0.01,LWC V2.00 B2112,2013-01-26 22:07:00,
2013-01-26 14:12:00,52.7,46.0,29.97,ESE,113,1.0,8.0,78,0.00,,,0.01,LWC V2.00 B2112,2013-01-26 22:12:00,
2013-01-26 14:17:00,52.4,45.4,29.97,North,356,3.0,6.0,77,0.00,,,0.01,LWC V2.00 B2112,2013-01-26 22:17:00,
2013-01-26 14:22:00,52.2,45.2,29.97,ESE,111,3.0,14.0,77,0.00,,,0.01,LWC V2.00 B2112,2013-01-26 22:22:00,
2013-01-26 14:27:00,52.1,44.8,29.97,NE,54,2.0,7.0,76,0.00,,,0.01,LWC V2.00 B2112,2013-01-26 22:27:00,
2013-01-26 14:32:00,51.9,44.6,29.98,North,11,1.0,9.0,76,0.00,,,0.01,LWC V2.00 B2112,2013-01-26 22:32:00,
2013-01-26 14:37:00,51.9,45.3,29.97,SSE,148,1.0,3.0,78,0.00,,,0.01,LWC V2.00 B2112,2013-01-26 22:37:00,
2013-01-26 14:42:00,51.8,45.2,29.98,NNE,26,4.0,9.0,78,0.00,,,0.01,LWC V2.00 B2112,2013-01-26 22:42:00,
2013-01-26 14:47:00,51.7,45.4,29.97,WNW,283,1.0,7.0,79,0.00,,,0.01,LWC V2.00 B2112,2013-01-26 22:47:00,
2013-01-26 14:52:00,51.6,45.6,29.98,ESE,108,4.0,7.0,80,0.00,,,0.01,LWC V2.00 B2112,2013-01-26 22:52:00,
2013-01-26 14:57:00,51.4,45.1,29.98,SSE,162,2.0,5.0,79,0.00,,,0.01,LWC V2.00 B2112,2013-01-26 22:57:00,
2013-01-26 15:02:00,51.3,44.7,29.98,SSW,197,4.0,7.0,78,0.00,,,0.01,LWC V2.00 B2112,2013-01-26 23:02:00,
2013-01-26 15:07:00,51.2,44.2,29.98,ESE,119,1.0,11.0,77,0.00,,,0.01,LWC V2.00 B2112,2013-01-26 23:07:00,
2013-01-26 15:12:00,51.2,44.6,29.98,East,82,4.0,11.0,78,0.00,,,0.01,LWC V2.00 B2112,2013-01-26 23:12:00,
2013-01-26 15:17:00,51.2,44.2,29.98,ESE,105,5.0,12.0,77,0.00,,,0.01,LWC V2.00 B2112,2013-01-26 23:17:00,
2013-01-26 15:22:00,51.1,44.1,29.98,ENE,78,4.0,4.0,77,0.00,,,0.01,LWC V2.00 B2112,2013-01-26 23:22:00,
2013-01-26 15:27:00,51.0,44.0,29.98,NE,41,6.0,6.0,77,0.00,,,0.01,LWC V2.00 B2112,2013-01-26 23:27:00,
2013-01-26 15:32:00,51.0,44.4,29.98,East,96,3.0,6.0,78,0.00,,,0.01,LWC V2.00 B2112,2013-01-26 23:32:00,
2013-01-26 15:37:00,50.9,44.6,29.98,ESE,122,2.0,5.0,79,0.00,,,0.01,LWC V2.00 B2112,2013-01-26 23:37:00,
2013-01-26 15:42:00,50.8,44.9,29.98,NNW,346,1.0,4.0,80,0.00,,,0.01,LWC V2.00 B2112,2013-01-26 23:42:00,
2013-01-26 15:47:00,50.8,44.9,29.98,WNW,284,1.0,5.0,80,0.00,,,0.01,LWC V2.00 B2112,2013-01-26 23:47:00,
2013-01-26 15:52:00,50.6,44.0,29.97,NE,38,2.0,7.0,78,0.00,,,0.01,LWC V2.00 B2112,2013-01-26 23:52:00,
2013-01-26 15:57:00,50.6,44.0,29.97,SE,138,0.0,5.0,78,0.00,,,0.01,LWC V2.00 B2112,2013-01-26 23:57:00,
2013-01-26 16:02:00,50.4,43.8,29.98,East,98,3.0,4.0,78,0.00,,,0.01,LWC V2.00 B2112,2013-01-27 00:02:00,
2013-01-26 16:07:00,50.4,44.1,29.98,East,91,1.0,6.0,79,0.00,,,0.01,LWC V2.00 B2112,2013-01-27 00:07:00,
2013-01-26 16:12:00,50.2,43.9,29.98,ENE,77,3.0,4.0,79,0.00,,,0.01,LWC V2.00 B2112,2013-01-27 00:12:00,
2013-01-26 16:17:00,50.2,43.9,29.98,SSE,152,0.0,4.0,79,0.00,,,0.01,LWC V2.00 B2112,2013-01-27 00:17:00,
2013-01-26 16:22:00,50.2,44.3,29.98,North,11,6.0,6.0,80,0.00,,,0.01,LWC V2.00 B2112,2013-01-27 00:22:00,
2013-01-26 16:27:00,50.1,44.2,29.98,East,82,4.0,4.0,80,0.00,,,0.01,LWC V2.00 B2112,2013-01-27 00:27:00,
2013-01-26 16:32:00,50.1,44.2,29.98,SSE,163,2.0,7.0,80,0.00,,,0.01,LWC V2.00 B2112,2013-01-27 00:32:00,
2013-01-26 16:37:00,50.0,44.1,29.98,ESE,117,3.0,3.0,80,0.00,,,0.01,LWC V2.00 B2112,2013-01-27 00:37:00,
2013-01-26 16:42:00,49.9,44.0,29.98,South,184,1.0,7.0,80,0.00,,,0.01,LWC V2.00 B2112,2013-01-27 00:42:00,
2013-01-26 16:47:00,49.8,44.2,29.98,ESE,108,3.0,4.0,81,0.00,,,0.01,LWC V2.00 B2112,2013-01-27 00:47:00,
2013-01-26 16:52:00,49.7,44.1,29.98,SE,135,3.0,7.0,81,0.00,,,0.01,LWC V2.00 B2112,2013-01-27 00:52:00,
2013-01-26 16:57:00,49.6,44.0,29.98,NW,314,5.0,8.0,81,0.00,,,0.01,LWC V2.00 B2112,2013-01-27 00:57:00,
2013-01-26 17:02:00,49.5,43.9,29.98,WNW,290,2.0,8.0,81,0.00,,,0.01,LWC V2.00 B2112,2013-01-27 01:02:00,
2013-01-26 17:07:00,49.5,43.9,29.98,East,84,3.0,5.0,81,0.00,,,0.01,LWC V2.00 B2112,2013-01-27 01:07:00,
2013-01-26 17:12:00,49.4,44.1,29.98,North,351,1.0,4.0,82,0.00,,,0.01,LWC V2.00 B2112,2013-01-27 01:12:00,
2013-01-26 17:17:00,49.2,43.9,29.98,WNW,290,1.0,2.0,82,0.00,,,0.01,LWC V2.00 B2112,2013-01-27 01:17:00,
2013-01-26 17:22:00,49.1,43.8,29.99,ESE,115,0.0,2.0,82,0.00,,,0.01,LWC V2.00 B2112,2013-01-27 01:22:00,
2013-01-26 17:27:00,49.0,43.7,29.99,ESE,113,0.0,6.0,82,0.00,,,0.01,LWC V2.00 B2112,2013-01-27 01:27:00,
2013-01-26 17:32:00,48.9,43.6,29.99,ENE,71,2.0,3.0,82,0.00,,,0.01,LWC V2.00 B2112,2013-01-27 01:32:00,
2013-01-26 17:37:00,48.7,43.5,29.99,NW,311,2.0,6.0,82,0.00,,,0.01,LWC V2.00 B2112,2013-01-27 01:37:00,
2013-01-26 17:42:00,48.6,43.4,29.99,SE,139,1.0,1.0,82,0.00,,,0.01,LWC V2.00 B2112,2013-01-27 01:42:00,
2013-01-26 17:47:00,48.5,43.3,29.99,WNW,302,1.0,4.0,82,0.00,,,0.01,LWC V2.00 B2112,2013-01-27 01:47:00,
2013-01-26 17:52:00,48.3,43.4,29.99,ESE,115,2.0,5.0,83,0.00,,,0.01,LWC V2.00 B2112,2013-01-27 01:52:00,
2013-01-26 17:57:00,48.3,43.4,29.99,NNW,330,2.0,2.0,83,0.00,,,0.01,LWC V2.00 B2112,2013-01-27 01:57:00,
2013-01-26 18:02:00,48.2,43.3,29.99,ESE,122,1.0,2.0,83,0.00,,,0.01,LWC V2.00 B2112,2013-01-27 02:02:00,
2013-01-26 18:07:00,48.1,43.5,30.00,South,190,0.0,4.0,84,0.00,,,0.01,LWC V2.00 B2112,2013-01-27 02:07:00,
2013-01-26 18:12:00,48.0,43.4,30.00,WNW,300,4.0,4.0,84,0.00,,,0.01,LWC V2.00 B2112,2013-01-27 02:12:00,
2013-01-26 18:17:00,48.0,43.4,30.00,SSW,210,0.0,8.0,84,0.00,,,0.01,LWC V2.00 B2112,2013-01-27 02:17:00,
2013-01-26 18:22:00,48.3,43.7,30.00,ENE,61,1.0,3.0,84,0.00,,,0.01,LWC V2.00 B2112,2013-01-27 02:22:00,
2013-01-26 18:27:00,48.3,43.7,30.01,SSE,156,0.0,7.0,84,0.00,,,0.01,LWC V2.00 B2112,2013-01-27 02:27:00,
2013-01-26 18:32:00,48.2,43.6,30.01,East,96,1.0,1.0,84,0.00,,,0.01,LWC V2.00 B2112,2013-01-27 02:32:00,
2013-01-26 18:37:00,48.1,43.8,30.01,SSE,150,0.0,9.0,85,0.00,,,0.01,LWC V2.00 B2112,2013-01-27 02:37:00,
2013-01-26 18:42:00,48.2,43.9,30.01,NE,37,0.0,4.0,85,0.00,,,0.01,LWC V2.00 B2112,2013-01-27 02:42:00,
2013-01-26 18:47:00,48.2,43.6,30.01,SE,129,1.0,5.0,84,0.00,,,0.01,LWC V2.00 B2112,2013-01-27 02:47:00,
2013-01-26 18:52:00,48.2,43.6,30.01,NNW,345,4.0,5.0,84,0.00,,,0.01,LWC V2.00 B2112,2013-01-27 02:52:00,
2013-01-26 18:57:00,48.1,43.5,30.01,SW,236,0.0,1.0,84,0.00,,,0.01,LWC V2.00 B2112,2013-01-27 02:57:00,
2013-01-26 19:02:00,48.1,43.8,30.01,East,96,0.0,1.0,85,0.00,,,0.01,LWC V2.00 B2112,2013-01-27 03:02:00,
2013-01-26 19:07:00,48.0,43.7,30.01,North,8,1.0,1.0,85,0.00,,,0.01,LWC V2.00 B2112,2013-01-27 03:07:00,
2013-01-26 19:12:00,48.0,43.7,30.02,ESE,108,3.0,6.0,85,0.00,,,0.01,LWC V2.00 B2112,2013-01-27 03:12:00,
2013-01-26 19:17:00,48.1,43.8,30.02,SE,131,0.0,1.0,85,0.00,,,0.01,LWC V2.00 B2112,2013-01-27 03:17:00,
2013-01-26 19:22:00,48.0,43.7,30.02,East,86,1.0,4.0,85,0.00,,,0.01,LWC V2.00 B2112,2013-01-27 03:22:00,
2013-01-26 19:27:00,47.9,43.6,30.02,North,352,1.0,4.0,85,0.00,,,0.01,LWC V2.00 B2112,2013-01-27 03:27:00,
2013-01-26 19:32:00,47.8,43.2,30.02,ENE,77,2.0,4.0,84,0.00,,,0.01,LWC V2.00 B2112,2013-01-27 03:32:00,
2013-01-26 19:37:00,47.9,43.3,30.02,SE,138,1.0,2.0,84,0.00,,,0.01,LWC V2.00 B2112,2013-01-27 03:37:00,
2013-01-26 19:42:00,47.9,43.6,30.02,SW,214,1.0,4.0,85,0.00,,,0.01,LWC V2.00 B2112,2013-01-27 03:42:00,
2013-01-26 19:47:00,47.9,43.6,30.02,NE,46,2.0,2.0,85,0.00,,,0.01,LWC V2.00 B2112,2013-01-27 03:47:00,
2013-01-26 19:52:00,47.8,43.5,30.02,SE,128,0.0,2.0,85,0.00,,,0.01,LWC V2.00 B2112,2013-01-27 03:52:00,
2013-01-26 19:57:00,47.6,43.6,30.03,SSE,148,2.0,2.0,86,0.00,,,0.01,LWC V2.00 B2112,2013-01-27 03:57:00,
2013-01-26 20:02:00,47.7,43.7,30.03,ESE,106,0.0,3.0,86,0.00,,,0.01,LWC V2.00 B2112,2013-01-27 04:02:00,
2013-01-26 20:07:00,47.7,43.7,30.03,NW,315,0.0,2.0,86,0.00,,,0.01,LWC V2.00 B2112,2013-01-27 04:07:00,
2013-01-26 20:12:00,47.5,43.8,30.03,NW,321,1.0,3.0,87,0.00,,,0.01,LWC V2.00 B2112,2013-01-27 04:12:00,
2013-01-26 20:17:00,47.6,44.2,30.03,ESE,112,3.0,3.0,88,0.00,,,0.01,LWC V2.00 B2112,2013-01-27 04:17:00,
2013-01-26 20:22:00,47.5,43.8,30.03,West,269,0.0,0.0,87,0.00,,,0.01,LWC V2.00 B2112,2013-01-27 04:22:00,
2013-01-26 20:27:00,47.3,43.9,30.03,SE,133,0.0,4.0,88,0.00,,,0.01,LWC V2.00 B2112,2013-01-27 04:27:00,
2013-01-26 20:32:00,47.3,43.9,30.03,WSW,256,0.0,2.0,88,0.00,,,0.01,LWC V2.00 B2112,2013-01-27 04:32:00,
2013-01-26 20:37:00,47.2,43.8,30.03,SE,135,1.0,3.0,88,0.00,,,0.01,LWC V2.00 B2112,2013-01-27 04:37:00,
2013-01-26 20:42:00,47.4,44.3,30.03,ENE,61,1.0,3.0,89,0.00,,,0.01,LWC V2.00 B2112,2013-01-27 04:42:00,
2013-01-26 20:47:00,47.5,44.1,30.03,South,172,0.0,1.0,88,0.00,,,0.01,LWC V2.00 B2112,2013-01-27 04:47:00,
2013-01-26 20:52:00,47.5,44.1,30.03,East,86,0.0,1.0,88,0.00,,,0.01,LWC V2.00 B2112,2013-01-27 04:52:00,
2013-01-26 20:57:00,47.5,44.1,30.03,SSE,154,0.0,1.0,88,0.00,,,0.01,LWC V2.00 B2112,2013-01-27 04:57:00,
2013-01-26 21:00:00,47.5,44.1,30.03,ESE,113,1.0,2.0,88,0.00,,,0.01,LWC V2.00 B2112,2013-01-27 05:00:00,
2013-01-26 21:05:00,47.3,43.9,30.03,East,92,0.0,1.0,88,0.00,,,0.01,LWC V2.00 B2112,2013-01-27 05:05:00,
2013-01-26 21:10:00,47.3,44.2,30.03,SW,228,0.0,1.0,89,0.00,,,0.01,LWC V2.00 B2112,2013-01-27 05:10:00,
2013-01-26 21:15:00,47.1,44.0,30.03,SW,228,0.0,1.0,89,0.00,,,0.01,LWC V2.00 B2112,2013-01-27 05:15:00,
2013-01-26 21:20:00,46.9,43.8,30.04,NNW,340,0.0,1.0,89,0.00,,,0.01,LWC V2.00 B2112,2013-01-27 05:20:00,
2013-01-26 21:25:00,47.0,44.2,30.03,NE,47,0.0,2.0,90,0.00,,,0.01,LWC V2.00 B2112,2013-01-27 05:25:00,
2013-01-26 21:30:00,47.0,44.2,30.03,WSW,257,0.0,0.0,90,0.00,,,0.01,LWC V2.00 B2112,2013-01-27 05:30:00,
2013-01-26 21:35:00,47.1,44.3,30.03,WSW,257,0.0,0.0,90,0.00,,,0.01,LWC V2.00 B2112,2013-01-27 05:35:00,
2013-01-26 21:40:00,47.1,44.3,30.04,ESE,112,0.0,1.0,90,0.00,,,0.01,LWC V2.00 B2112,2013-01-27 05:40:00,
2013-01-26 21:45:00,47.0,44.2,30.04,NNW,333,0.0,2.0,90,0.00,,,0.01,LWC V2.00 B2112,2013-01-27 05:45:00,
2013-01-26 21:50:00,47.1,44.3,30.04,SSE,154,1.0,2.0,90,0.00,,,0.01,LWC V2.00 B2112,2013-01-27 05:50:00,
2013-01-26 21:55:00,47.3,44.2,30.04,NNE,27,0.0,2.0,89,0.00,,,0.01,LWC V2.00 B2112,2013-01-27 05:55:00,
2013-01-26 22:00:00,47.4,44.3,30.04,North,5,2.0,2.0,89,0.00,,,0.01,LWC V2.00 B2112,2013-01-27 06:00:00,
2013-01-26 22:05:00,47.3,43.9,30.04,NW,314,1.0,3.0,88,0.00,,,0.01,LWC V2.00 B2112,2013-01-27 06:05:00,
2013-01-26 22:10:00,47.4,44.0,30.04,ESE,104,1.0,4.0,88,0.00,,,0.01,LWC V2.00 B2112,2013-01-27 06:10:00,
2013-01-26 22:15:00,47.4,44.0,30.04,SW,231,0.0,1.0,88,0.00,,,0.01,LWC V2.00 B2112,2013-01-27 06:15:00,
2013-01-26 22:20:00,47.3,43.9,30.04,ESE,115,0.0,0.0,88,0.00,,,0.01,LWC V2.00 B2112,2013-01-27 06:20:00,
2013-01-26 22:25:00,47.1,43.7,30.04,ESE,102,0.0,0.0,88,0.00,,,0.01,LWC V2.00 B2112,2013-01-27 06:25:00,
2013-01-26 22:30:00,46.9,43.5,30.04,ESE,105,0.0,0.0,88,0.00,,,0.01,LWC V2.00 B2112,2013-01-27 06:30:00,
2013-01-26 22:35:00,46.7,43.6,30.04,ESE,108,0.0,0.0,89,0.00,,,0.01,LWC V2.00 B2112,2013-01-27 06:35:00,
2013-01-26 22:40:00,46.6,43.5,30.04,ESE,108,0.0,0.0,89,0.00,,,0.01,LWC V2.00 B2112,2013-01-27 06:40:00,
2013-01-26 22:45:00,46.3,43.2,30.04,NNW,333,0.0,0.0,89,0.00,,,0.01,LWC V2.00 B2112,2013-01-27 06:45:00,
2013-01-26 22:50:00,46.2,43.4,30.05,NNW,340,0.0,0.0,90,0.00,,,0.01,LWC V2.00 B2112,2013-01-27 06:50:00,
2013-01-26 22:55:00,46.0,43.2,30.05,ESE,105,0.0,0.0,90,0.00,,,0.01,LWC V2.00 B2112,2013-01-27 06:55:00,
2013-01-26 23:00:00,45.9,43.1,30.05,ESE,105,0.0,0.0,90,0.00,,,0.01,LWC V2.00 B2112,2013-01-27 07:00:00,
2013-01-26 23:05:00,45.9,43.4,30.05,NE,39,0.0,0.0,91,0.00,,,0.01,LWC V2.00 B2112,2013-01-27 07:05:00,
2013-01-26 23:13:00,46.6,43.8,30.05,East,96,1.0,1.0,90,0.00,,,0.01,LWC V2.00 B2112,2013-01-27 07:13:00,
2013-01-26 23:18:00,46.5,43.4,30.05,SE,133,0.0,1.0,89,0.00,,,0.01,LWC V2.00 B2112,2013-01-27 07:18:00,
2013-01-26 23:23:00,46.5,43.4,30.05,ESE,115,0.0,1.0,89,0.00,,,0.01,LWC V2.00 B2112,2013-01-27 07:23:00,
2013-01-26 23:28:00,46.5,43.1,30.05,SSE,163,2.0,2.0,88,0.00,,,0.01,LWC V2.00 B2112,2013-01-27 07:28:00,
2013-01-26 23:33:00,46.5,42.8,30.05,ESE,114,2.0,2.0,87,0.00,,,0.01,LWC V2.00 B2112,2013-01-27 07:33:00,
2013-01-26 23:38:00,46.5,42.8,30.05,East,96,0.0,2.0,87,0.00,,,0.01,LWC V2.00 B2112,2013-01-27 07:38:00,
2013-01-26 23:40:00,46.5,42.8,30.05,ESE,111,1.0,2.0,87,0.00,,,0.00,LWC V2.00 B2112,2013-01-27 07:40:00,
2013-01-26 23:43:00,46.5,42.5,30.05,WNW,302,0.0,4.0,86,0.00,,,0.01,LWC V2.00 B2112,2013-01-27 07:43:00,
2013-01-26 23:48:00,46.5,42.5,30.05,SE,131,1.0,2.0,86,0.00,,,0.01,LWC V2.00 B2112,2013-01-27 07:48:00,
2013-01-26 23:50:00,46.5,43.1,30.05,ESE,112,1.0,5.0,88,0.00,,,0.00,LWC V2.00 B2112,2013-01-27 07:50:00,